Time;durP1;ratioP1;P1;durP2;ratioP2;P2;SDS_P1;SDS_P2;PMS_P1;PMS_P2;Temp;Humidity;BMP_temperature;BMP_pressure;BME280_temperature;BME280_humidity;BME280_pressure;Samples;Min_cycle;Max_cycle;Signal;HPM_P1;HPM_P2
2023/12/26 00:00:55;;;;;;;11.87;11.47;;;11.00;99.90;;;;;;5121482;27;20222;-65
2023/12/26 00:03:22;;;;;;;11.97;11.57;;;11.00;99.90;;;;;;5122224;27;20217;-65
2023/12/26 00:05:49;;;;;;;12.73;12.33;;;10.90;99.90;;;;;;5124191;27;20217;-65
2023/12/26 00:08:17;;;;;;;12.70;12.20;;;11.10;99.90;;;;;;5113311;27;20301;-66
2023/12/26 00:10:44;;;;;;;13.47;12.97;;;11.00;99.90;;;;;;5119791;27;20249;-66
2023/12/26 00:13:11;;;;;;;12.23;11.83;;;11.00;99.90;;;;;;5134137;27;20219;-65
2023/12/26 00:15:38;;;;;;;12.20;11.80;;;11.00;99.90;;;;;;5115439;27;20213;-65
2023/12/26 00:18:05;;;;;;;12.20;11.80;;;11.00;99.90;;;;;;5124236;27;20745;-66
2023/12/26 00:20:32;;;;;;;12.47;12.07;;;11.00;99.90;;;;;;5126552;27;20308;-67
2023/12/26 00:22:59;;;;;;;13.43;12.93;;;11.00;99.90;;;;;;5113601;27;20225;-66
2023/12/26 00:25:27;;;;;;;12.90;12.50;;;11.00;99.90;;;;;;5114348;27;20241;-67
2023/12/26 00:27:54;;;;;;;12.63;12.23;;;11.10;99.90;;;;;;5122572;27;20601;-65
2023/12/26 00:30:21;;;;;;;12.30;11.90;;;11.10;99.90;;;;;;5125158;27;20223;-64
2023/12/26 00:32:48;;;;;;;12.43;12.03;;;11.00;99.90;;;;;;5118414;27;20195;-65
2023/12/26 00:35:15;;;;;;;12.50;12.00;;;11.00;99.90;;;;;;5116803;27;20205;-66
2023/12/26 00:37:42;;;;;;;11.97;11.57;;;10.90;99.90;;;;;;5113326;27;20209;-65
2023/12/26 00:40:10;;;;;;;12.43;12.03;;;11.00;99.90;;;;;;5126749;27;20669;-65
2023/12/26 00:42:38;;;;;;;13.03;12.63;;;10.90;99.90;;;;;;5119055;27;20751;-65
2023/12/26 00:45:06;;;;;;;12.00;11.60;;;10.90;99.90;;;;;;5121519;28;20258;-64
2023/12/26 00:47:34;;;;;;;12.47;12.07;;;10.90;99.90;;;;;;5118040;28;20205;-66
2023/12/26 00:50:01;;;;;;;11.93;11.53;;;10.90;99.90;;;;;;5124641;28;21633;-66
2023/12/26 00:52:30;;;;;;;12.70;12.20;;;10.80;99.90;;;;;;5120467;27;20197;-65
2023/12/26 00:54:57;;;;;;;12.00;11.60;;;10.80;99.90;;;;;;5121151;28;20198;-65
2023/12/26 00:57:24;;;;;;;12.80;12.30;;;10.80;99.90;;;;;;5124575;27;20747;-65
2023/12/26 00:59:52;;;;;;;12.40;12.00;;;10.90;99.90;;;;;;5126064;28;20775;-65
2023/12/26 01:02:21;;;;;;;12.37;11.97;;;10.90;99.90;;;;;;5122899;27;20255;-66
2023/12/26 01:04:48;;;;;;;12.73;12.33;;;10.90;99.90;;;;;;5124264;27;20194;-66
2023/12/26 01:07:15;;;;;;;12.13;11.73;;;10.90;99.90;;;;;;5117522;28;20297;-66
2023/12/26 01:09:41;;;;;;;12.50;12.10;;;10.80;99.90;;;;;;5120186;27;20319;-66
2023/12/26 01:12:08;;;;;;;12.17;11.67;;;10.80;99.90;;;;;;5113253;28;20190;-65
2023/12/26 01:14:35;;;;;;;12.23;11.83;;;10.80;99.90;;;;;;5118594;27;20197;-64
2023/12/26 01:17:03;;;;;;;12.20;11.80;;;10.90;99.90;;;;;;5119276;27;20586;-66
2023/12/26 01:19:30;;;;;;;11.93;11.53;;;10.80;99.90;;;;;;5118292;28;20213;-65
2023/12/26 01:21:57;;;;;;;12.27;11.83;;;10.90;99.90;;;;;;5123971;27;20202;-65
2023/12/26 01:24:24;;;;;;;12.00;11.60;;;10.90;99.90;;;;;;5129773;27;20197;-66
2023/12/26 01:26:50;;;;;;;11.97;11.57;;;10.90;99.90;;;;;;5120223;27;20292;-64
2023/12/26 01:29:17;;;;;;;11.88;11.48;;;10.70;99.90;;;;;;5120193;28;20213;-65
2023/12/26 01:31:44;;;;;;;12.27;11.80;;;10.80;99.90;;;;;;5118716;28;20205;-66
2023/12/26 01:34:12;;;;;;;11.53;11.13;;;10.70;99.90;;;;;;5124478;28;20197;-65
2023/12/26 01:36:39;;;;;;;11.40;11.00;;;10.70;99.90;;;;;;5125978;28;20232;-65
2023/12/26 01:39:06;;;;;;;11.30;10.90;;;10.70;99.90;;;;;;5124284;27;20203;-65
2023/12/26 01:41:33;;;;;;;11.40;11.00;;;10.70;99.90;;;;;;5128638;27;20202;-65
2023/12/26 01:44:00;;;;;;;11.37;10.97;;;10.80;99.90;;;;;;5137383;27;20285;-66
2023/12/26 01:46:27;;;;;;;11.27;10.87;;;10.90;99.90;;;;;;5133462;27;20202;-65
2023/12/26 01:48:55;;;;;;;11.63;11.23;;;10.80;99.90;;;;;;5134419;27;20229;-65
2023/12/26 01:51:26;;;;;;;11.90;11.50;;;10.80;99.90;;;;;;5124728;27;20251;-65
2023/12/26 01:53:53;;;;;;;11.47;11.07;;;10.80;99.90;;;;;;5142568;27;20260;-66
2023/12/26 01:56:22;;;;;;;11.75;11.35;;;10.70;99.90;;;;;;5133603;27;20261;-66
2023/12/26 01:58:50;;;;;;;12.13;11.70;;;10.80;99.90;;;;;;5131253;27;20205;-64
2023/12/26 02:01:17;;;;;;;11.57;11.17;;;10.70;99.90;;;;;;5124905;27;20739;-66
2023/12/26 02:03:44;;;;;;;11.50;11.10;;;10.80;99.90;;;;;;5122832;27;20229;-65
2023/12/26 02:06:12;;;;;;;11.13;10.73;;;10.80;99.90;;;;;;5119450;27;20280;-65
2023/12/26 02:08:41;;;;;;;11.63;11.23;;;10.80;99.90;;;;;;5116171;27;20282;-65
2023/12/26 02:11:08;;;;;;;11.40;11.00;;;10.80;99.90;;;;;;5121288;27;20221;-65
2023/12/26 02:13:36;;;;;;;12.03;11.63;;;10.80;99.90;;;;;;5122006;27;20216;-65
2023/12/26 02:16:11;;;;;;;12.27;11.57;;;10.80;99.90;;;;;;5122474;27;20215;-65
2023/12/26 02:18:38;;;;;;;11.97;11.57;;;10.80;99.90;;;;;;5121813;27;20206;-65
2023/12/26 02:21:05;;;;;;;11.53;11.13;;;10.90;99.90;;;;;;5116357;27;20232;-65
2023/12/26 02:23:34;;;;;;;11.77;11.33;;;10.70;99.90;;;;;;5112012;28;20249;-64
2023/12/26 02:26:03;;;;;;;11.87;11.47;;;10.70;99.90;;;;;;5114618;28;20290;-64
2023/12/26 02:28:32;;;;;;;11.50;11.10;;;10.70;99.90;;;;;;5117243;28;20194;-66
2023/12/26 02:31:01;;;;;;;11.77;11.37;;;10.80;99.90;;;;;;5113823;28;20309;-66
2023/12/26 02:33:30;;;;;;;11.43;11.03;;;10.70;99.90;;;;;;5114487;28;20273;-65
2023/12/26 02:35:57;;;;;;;12.27;11.77;;;10.70;99.90;;;;;;5113837;28;20208;-66
2023/12/26 02:38:24;;;;;;;11.60;11.20;;;10.70;99.90;;;;;;5114102;28;20288;-65
2023/12/26 02:40:52;;;;;;;11.53;11.13;;;10.60;99.90;;;;;;5113401;28;20226;-64
2023/12/26 02:43:21;;;;;;;11.40;11.00;;;10.60;99.90;;;;;;5108387;27;20271;-66
2023/12/26 02:45:49;;;;;;;11.13;10.73;;;10.60;99.90;;;;;;5113831;28;20309;-65
2023/12/26 02:48:15;;;;;;;11.10;10.70;;;10.60;99.90;;;;;;5107899;27;20229;-66
2023/12/26 02:50:42;;;;;;;11.10;10.70;;;10.60;99.90;;;;;;5113698;27;20218;-65
2023/12/26 02:53:09;;;;;;;11.27;10.87;;;10.60;99.90;;;;;;5112112;27;20194;-65
2023/12/26 02:55:36;;;;;;;11.05;10.65;;;10.60;99.90;;;;;;5113126;28;20202;-64
2023/12/26 02:58:03;;;;;;;10.87;10.47;;;10.60;99.90;;;;;;5114187;28;20205;-65
2023/12/26 03:00:31;;;;;;;10.77;10.37;;;10.50;99.90;;;;;;5113899;28;20218;-65
2023/12/26 03:02:58;;;;;;;11.33;10.93;;;10.60;99.90;;;;;;5111093;27;20225;-65
2023/12/26 03:05:25;;;;;;;10.93;10.53;;;10.60;99.90;;;;;;5113789;28;20201;-65
2023/12/26 03:07:51;;;;;;;10.93;10.53;;;10.60;99.90;;;;;;5111591;28;20287;-64
2023/12/26 03:10:18;;;;;;;11.03;10.63;;;10.50;99.90;;;;;;5118433;28;20222;-65
2023/12/26 03:12:45;;;;;;;11.00;10.60;;;10.60;99.90;;;;;;5114566;27;20210;-66
2023/12/26 03:15:12;;;;;;;11.07;10.67;;;10.50;99.90;;;;;;5115600;28;20265;-65
2023/12/26 03:17:41;;;;;;;11.37;10.97;;;10.60;99.90;;;;;;5111376;27;20301;-66
2023/12/26 03:20:08;;;;;;;11.33;10.93;;;10.60;99.90;;;;;;5115207;28;20232;-66
2023/12/26 03:22:35;;;;;;;12.63;12.13;;;10.50;99.90;;;;;;5109609;27;20664;-66
2023/12/26 03:25:02;;;;;;;11.37;10.97;;;10.50;99.90;;;;;;5105442;28;20206;-66
2023/12/26 03:27:29;;;;;;;11.03;10.63;;;10.50;99.90;;;;;;5096647;28;20194;-65
2023/12/26 03:29:56;;;;;;;11.23;10.83;;;10.50;99.90;;;;;;5097601;28;20222;-64
2023/12/26 03:32:23;;;;;;;11.40;11.00;;;10.50;99.90;;;;;;5095198;28;20203;-64
2023/12/26 03:34:51;;;;;;;11.47;11.07;;;10.50;99.90;;;;;;5103059;28;20205;-65
2023/12/26 03:37:18;;;;;;;11.07;10.67;;;10.50;99.90;;;;;;5099818;28;20195;-66
2023/12/26 03:39:45;;;;;;;11.10;10.70;;;10.50;99.90;;;;;;5098410;28;20715;-64
2023/12/26 03:42:12;;;;;;;11.50;11.10;;;10.50;99.90;;;;;;5100444;28;20198;-66
2023/12/26 03:44:38;;;;;;;11.20;10.80;;;10.50;99.90;;;;;;5100625;28;20257;-65
2023/12/26 03:47:06;;;;;;;11.30;10.90;;;10.50;99.90;;;;;;5099811;28;20198;-65
2023/12/26 03:49:33;;;;;;;10.90;10.50;;;10.50;99.90;;;;;;5098913;28;20654;-65
2023/12/26 03:52:01;;;;;;;11.03;10.63;;;10.50;99.90;;;;;;5101859;28;20586;-65
2023/12/26 03:54:28;;;;;;;10.97;10.57;;;10.50;99.90;;;;;;5096004;28;20717;-66
2023/12/26 03:56:54;;;;;;;11.27;10.87;;;10.50;99.90;;;;;;5100374;28;20291;-65
2023/12/26 03:59:21;;;;;;;10.90;10.50;;;10.50;99.90;;;;;;5102470;28;20249;-65
2023/12/26 04:01:48;;;;;;;10.87;10.47;;;10.70;99.90;;;;;;5102337;28;20568;-64
2023/12/26 04:04:15;;;;;;;10.97;10.57;;;10.50;99.90;;;;;;5099852;28;20228;-65
2023/12/26 04:06:42;;;;;;;11.47;11.07;;;10.60;99.90;;;;;;5102683;28;20202;-66
2023/12/26 04:09:12;;;;;;;11.70;11.30;;;10.50;99.90;;;;;;5099285;28;20202;-64
2023/12/26 04:11:39;;;;;;;11.10;10.70;;;10.50;99.90;;;;;;5097334;28;20676;-66
2023/12/26 04:14:06;;;;;;;11.47;11.07;;;10.50;99.90;;;;;;5104345;28;20209;-64
2023/12/26 04:16:33;;;;;;;11.43;11.00;;;10.60;99.90;;;;;;5103012;28;20688;-64
2023/12/26 04:19:02;;;;;;;11.23;10.83;;;10.60;99.90;;;;;;5108455;27;20206;-65
2023/12/26 04:21:29;;;;;;;10.73;10.33;;;10.50;99.90;;;;;;5112089;28;20208;-64
2023/12/26 04:23:55;;;;;;;11.10;10.70;;;10.50;99.90;;;;;;5114956;28;20312;-65
2023/12/26 04:26:24;;;;;;;10.63;10.23;;;10.50;99.90;;;;;;5119329;28;20208;-65
2023/12/26 04:28:51;;;;;;;11.20;10.80;;;10.50;99.90;;;;;;5121061;27;20206;-65
2023/12/26 04:31:18;;;;;;;10.73;10.33;;;10.50;99.90;;;;;;5121916;27;20301;-65
2023/12/26 04:33:45;;;;;;;11.30;10.90;;;10.50;99.90;;;;;;5121560;27;20237;-65
2023/12/26 04:36:12;;;;;;;11.37;10.97;;;10.50;99.90;;;;;;5124692;27;20204;-65
2023/12/26 04:38:38;;;;;;;11.10;10.70;;;10.50;99.90;;;;;;5123185;27;20206;-65
2023/12/26 04:41:10;;;;;;;11.10;10.70;;;10.50;99.90;;;;;;5129172;27;20320;-66
2023/12/26 04:43:39;;;;;;;11.00;10.60;;;10.50;99.90;;;;;;5125481;27;20213;-64
2023/12/26 04:46:06;;;;;;;11.10;10.70;;;10.40;99.90;;;;;;5123653;27;20201;-66
2023/12/26 04:48:32;;;;;;;11.47;11.07;;;10.40;99.90;;;;;;5121957;28;20288;-67
2023/12/26 04:50:59;;;;;;;10.87;10.47;;;10.40;99.90;;;;;;5121072;27;20595;-65
2023/12/26 04:53:26;;;;;;;10.87;10.47;;;10.40;99.90;;;;;;5121705;28;20250;-65
2023/12/26 04:55:53;;;;;;;11.57;11.17;;;10.40;99.90;;;;;;5122001;28;20215;-64
2023/12/26 04:58:19;;;;;;;11.07;10.67;;;10.40;99.90;;;;;;5119175;27;20285;-65
2023/12/26 05:00:48;;;;;;;11.07;10.67;;;10.40;99.90;;;;;;5121287;28;20251;-64
2023/12/26 05:03:15;;;;;;;11.40;10.90;;;10.40;99.90;;;;;;5119986;27;20205;-64
2023/12/26 05:05:41;;;;;;;11.23;10.83;;;10.40;99.90;;;;;;5119337;28;20204;-63
2023/12/26 05:08:08;;;;;;;11.00;10.60;;;10.40;99.90;;;;;;5120750;27;20205;-64
2023/12/26 05:10:35;;;;;;;11.00;10.60;;;10.40;99.90;;;;;;5119494;28;20764;-65
2023/12/26 05:13:02;;;;;;;10.67;10.27;;;10.40;99.90;;;;;;5122182;27;20207;-64
2023/12/26 05:15:29;;;;;;;10.90;10.50;;;10.50;99.90;;;;;;5118933;28;20300;-65
2023/12/26 05:17:57;;;;;;;11.40;10.90;;;10.50;99.90;;;;;;5124741;27;20208;-63
2023/12/26 05:20:23;;;;;;;10.83;10.43;;;10.50;99.90;;;;;;5119013;27;20230;-64
2023/12/26 05:22:50;;;;;;;10.90;10.50;;;10.50;99.90;;;;;;5126675;27;20310;-64
2023/12/26 05:25:17;;;;;;;10.90;10.50;;;10.40;99.90;;;;;;5126894;27;20225;-65
2023/12/26 05:27:44;;;;;;;10.77;10.38;;;10.40;99.90;;;;;;5123705;27;20622;-64
2023/12/26 05:30:12;;;;;;;11.33;10.80;;;10.40;99.90;;;;;;5126355;27;20312;-68
2023/12/26 05:32:39;;;;;;;12.03;11.63;;;10.40;99.90;;;;;;5119043;27;20198;-66
2023/12/26 05:35:08;;;;;;;10.77;10.37;;;10.40;99.90;;;;;;5125881;27;20263;-64
2023/12/26 05:37:35;;;;;;;10.73;10.33;;;10.40;99.90;;;;;;5123671;27;20197;-64
2023/12/26 05:40:01;;;;;;;11.00;10.60;;;10.40;99.90;;;;;;5125752;27;20217;-64
2023/12/26 05:42:28;;;;;;;12.03;11.53;;;10.40;99.90;;;;;;5119586;27;20571;-65
2023/12/26 05:44:55;;;;;;;11.37;10.97;;;10.40;99.90;;;;;;5114630;27;20227;-65
2023/12/26 05:47:22;;;;;;;10.87;10.47;;;10.40;99.90;;;;;;5119317;27;20292;-66
2023/12/26 05:49:49;;;;;;;11.03;10.63;;;10.40;99.90;;;;;;5119725;27;20308;-65
2023/12/26 05:52:18;;;;;;;11.53;11.10;;;10.40;99.90;;;;;;5116860;27;20198;-66
2023/12/26 05:54:44;;;;;;;11.77;11.20;;;10.40;99.90;;;;;;5116705;27;20237;-64
2023/12/26 05:57:11;;;;;;;10.97;10.57;;;10.40;99.90;;;;;;5115284;28;20213;-64
2023/12/26 05:59:38;;;;;;;10.93;10.53;;;10.40;99.90;;;;;;5115622;28;20257;-64
2023/12/26 06:02:06;;;;;;;11.07;10.57;;;10.40;99.90;;;;;;5115433;27;20198;-65
2023/12/26 06:04:32;;;;;;;10.90;10.50;;;10.40;99.90;;;;;;5114565;27;20226;-66
2023/12/26 06:06:59;;;;;;;10.93;10.53;;;10.40;99.90;;;;;;5117735;27;20288;-65
2023/12/26 06:09:27;;;;;;;10.73;10.33;;;10.40;99.90;;;;;;5112540;27;20618;-66
2023/12/26 06:11:54;;;;;;;11.03;10.63;;;10.40;99.90;;;;;;5115115;27;20208;-64
2023/12/26 06:14:22;;;;;;;11.20;10.80;;;10.40;99.90;;;;;;5117088;27;20194;-63
2023/12/26 06:16:49;;;;;;;11.23;10.83;;;10.50;99.90;;;;;;5113610;27;20202;-65
2023/12/26 06:19:16;;;;;;;11.03;10.63;;;10.40;99.90;;;;;;5114557;27;20205;-66
2023/12/26 06:21:43;;;;;;;11.10;10.70;;;10.40;99.90;;;;;;5118270;28;20212;-69
2023/12/26 06:24:10;;;;;;;11.03;10.63;;;10.40;99.90;;;;;;5128146;27;20218;-65
2023/12/26 06:26:38;;;;;;;11.07;10.67;;;10.40;99.90;;;;;;5128054;28;20293;-64
2023/12/26 06:29:05;;;;;;;10.70;10.30;;;10.40;99.90;;;;;;5129531;27;20226;-65
2023/12/26 06:31:31;;;;;;;10.80;10.40;;;10.40;99.90;;;;;;5132081;27;20285;-65
2023/12/26 06:33:58;;;;;;;11.20;10.80;;;10.40;99.90;;;;;;5130996;27;20233;-65
2023/12/26 06:36:27;;;;;;;11.10;10.70;;;10.40;99.90;;;;;;5128875;28;20206;-64
2023/12/26 06:39:00;;;;;;;11.13;10.73;;;10.40;99.90;;;;;;5126649;27;20205;-66
2023/12/26 06:41:27;;;;;;;11.00;10.60;;;10.40;99.90;;;;;;5110902;28;20672;-64
2023/12/26 06:43:56;;;;;;;11.10;10.70;;;10.40;99.90;;;;;;5121553;27;20218;-65
2023/12/26 06:46:23;;;;;;;11.00;10.60;;;10.40;99.90;;;;;;5133891;27;20233;-65
2023/12/26 06:48:50;;;;;;;11.00;10.60;;;10.40;99.90;;;;;;5136169;27;20230;-66
2023/12/26 06:51:17;;;;;;;10.60;10.20;;;10.40;99.90;;;;;;5135774;27;20225;-67
2023/12/26 06:53:44;;;;;;;10.90;10.50;;;10.40;99.90;;;;;;5129406;28;20206;-65
2023/12/26 06:56:11;;;;;;;11.43;11.03;;;10.40;99.90;;;;;;5138364;27;20245;-67
2023/12/26 06:58:38;;;;;;;11.23;10.83;;;10.40;99.90;;;;;;5136027;27;20225;-65
2023/12/26 07:01:09;;;;;;;11.07;10.67;;;10.40;99.90;;;;;;5121648;27;20226;-65
2023/12/26 07:03:35;;;;;;;10.90;10.50;;;10.50;99.90;;;;;;5121511;27;20198;-64
2023/12/26 07:06:02;;;;;;;10.73;10.33;;;10.40;99.90;;;;;;5121267;27;20489;-65
2023/12/26 07:08:29;;;;;;;11.17;10.77;;;10.40;99.90;;;;;;5121780;28;20222;-65
2023/12/26 07:10:56;;;;;;;11.17;10.77;;;10.40;99.90;;;;;;5123299;27;20304;-65
2023/12/26 07:13:23;;;;;;;10.63;10.23;;;10.40;99.90;;;;;;5117518;27;20233;-64
2023/12/26 07:15:51;;;;;;;11.23;10.83;;;10.40;99.90;;;;;;5113511;28;20262;-65
2023/12/26 07:18:19;;;;;;;11.27;10.87;;;10.40;99.90;;;;;;5116441;27;20209;-65
2023/12/26 07:20:46;;;;;;;11.37;10.97;;;10.50;99.90;;;;;;5116338;27;20699;-67
2023/12/26 07:23:13;;;;;;;11.30;10.90;;;10.50;99.90;;;;;;5113536;28;20194;-65
2023/12/26 07:25:41;;;;;;;11.50;11.10;;;10.60;99.90;;;;;;5118933;27;20781;-66
2023/12/26 07:28:07;;;;;;;11.27;10.87;;;10.60;99.90;;;;;;5114433;28;20210;-66
2023/12/26 07:30:34;;;;;;;10.63;10.23;;;10.60;99.90;;;;;;5120132;27;20256;-64
2023/12/26 07:33:01;;;;;;;10.63;10.23;;;10.70;99.90;;;;;;5113919;28;20205;-68
2023/12/26 07:35:30;;;;;;;10.43;10.13;;;10.70;99.90;;;;;;5119194;27;20200;-67
2023/12/26 07:37:57;;;;;;;11.10;10.70;;;10.70;99.90;;;;;;5119034;27;20200;-67
2023/12/26 07:40:24;;;;;;;10.37;10.00;;;10.70;99.90;;;;;;5123123;27;20774;-66
2023/12/26 07:42:51;;;;;;;10.77;10.37;;;10.70;99.90;;;;;;5117916;27;20224;-66
2023/12/26 07:45:20;;;;;;;10.67;10.27;;;10.70;99.90;;;;;;5129547;27;20626;-67
2023/12/26 07:47:46;;;;;;;11.37;10.97;;;10.60;99.90;;;;;;5120601;27;20242;-66
2023/12/26 07:50:13;;;;;;;11.00;10.60;;;10.60;99.90;;;;;;5118651;28;20225;-66
2023/12/26 07:52:41;;;;;;;11.60;11.10;;;10.70;99.90;;;;;;5125189;27;20212;-66
2023/12/26 07:55:09;;;;;;;10.53;10.13;;;10.80;99.90;;;;;;5124632;27;20194;-68
2023/12/26 07:57:36;;;;;;;10.87;10.47;;;10.80;99.90;;;;;;5121672;27;20201;-68
2023/12/26 08:00:04;;;;;;;11.10;10.70;;;10.80;99.90;;;;;;5115689;27;20222;-66
2023/12/26 08:02:31;;;;;;;12.27;11.80;;;10.80;99.90;;;;;;5116475;27;20202;-67
2023/12/26 08:04:57;;;;;;;11.27;10.87;;;10.90;99.90;;;;;;5124891;27;20217;-65
2023/12/26 08:07:24;;;;;;;11.30;10.90;;;10.90;99.90;;;;;;5121572;27;20204;-66
2023/12/26 08:09:52;;;;;;;11.57;11.17;;;10.90;99.90;;;;;;5122897;27;20221;-66
2023/12/26 08:12:19;;;;;;;11.63;11.23;;;10.90;99.90;;;;;;5116260;27;20194;-66
2023/12/26 08:14:46;;;;;;;12.30;11.80;;;11.00;99.90;;;;;;5117442;27;20205;-67
2023/12/26 08:17:13;;;;;;;10.97;10.57;;;11.00;99.90;;;;;;5113045;27;20219;-67
2023/12/26 08:19:40;;;;;;;11.63;11.23;;;11.00;99.90;;;;;;5114953;27;20228;-67
2023/12/26 08:22:06;;;;;;;11.20;10.80;;;11.00;99.90;;;;;;5117428;27;20205;-66
2023/12/26 08:24:33;;;;;;;11.10;10.70;;;11.00;99.90;;;;;;5112502;27;20313;-66
2023/12/26 08:27:02;;;;;;;11.93;11.53;;;11.00;99.90;;;;;;5112075;28;20676;-67
2023/12/26 08:29:28;;;;;;;11.60;11.20;;;11.00;99.90;;;;;;5115181;27;20617;-68
2023/12/26 08:31:55;;;;;;;11.97;11.57;;;11.00;99.90;;;;;;5114573;28;20297;-67
2023/12/26 08:34:23;;;;;;;12.27;11.87;;;11.00;99.90;;;;;;5114747;27;20198;-67
2023/12/26 08:36:49;;;;;;;11.57;11.17;;;11.00;99.90;;;;;;5114803;27;20201;-66
2023/12/26 08:39:16;;;;;;;12.47;11.97;;;11.00;99.90;;;;;;5113533;28;20237;-67
2023/12/26 08:41:43;;;;;;;12.33;11.83;;;11.00;99.90;;;;;;5113558;27;20208;-67
2023/12/26 08:44:11;;;;;;;11.70;11.30;;;11.00;99.90;;;;;;5109104;27;20213;-66
2023/12/26 08:46:39;;;;;;;11.30;10.90;;;11.00;99.90;;;;;;5111457;28;20567;-66
2023/12/26 08:49:06;;;;;;;11.67;11.27;;;10.90;99.90;;;;;;5119083;28;20583;-65
2023/12/26 08:51:37;;;;;;;11.47;11.07;;;11.00;99.90;;;;;;5122318;27;20205;-67
2023/12/26 08:54:04;;;;;;;11.87;11.47;;;11.00;99.90;;;;;;5114176;28;20202;-68
2023/12/26 08:56:30;;;;;;;12.13;11.73;;;11.10;99.90;;;;;;5112167;28;20578;-66
2023/12/26 08:58:57;;;;;;;11.97;11.57;;;11.10;99.90;;;;;;5112541;28;20215;-65
2023/12/26 09:01:25;;;;;;;12.70;12.27;;;11.10;99.90;;;;;;5114827;28;20232;-67
2023/12/26 09:03:52;;;;;;;11.40;11.00;;;11.10;99.90;;;;;;5117470;28;20213;-66
2023/12/26 09:06:19;;;;;;;12.10;11.70;;;11.10;99.90;;;;;;5114066;28;20695;-66
2023/12/26 09:08:46;;;;;;;11.53;11.13;;;11.20;99.90;;;;;;5118491;28;20201;-65
2023/12/26 09:11:13;;;;;;;11.40;11.00;;;11.20;99.90;;;;;;5111656;28;20328;-66
2023/12/26 09:13:40;;;;;;;12.17;11.67;;;11.20;99.90;;;;;;5119468;28;20202;-68
2023/12/26 09:16:08;;;;;;;12.70;12.20;;;11.20;99.90;;;;;;5115485;28;21189;-67
2023/12/26 09:18:37;;;;;;;11.33;10.93;;;11.20;99.90;;;;;;5109478;28;20271;-67
2023/12/26 09:21:04;;;;;;;11.67;11.27;;;11.20;99.90;;;;;;5114925;28;20240;-67
2023/12/26 09:23:31;;;;;;;12.40;11.97;;;11.20;99.90;;;;;;5112519;27;20198;-67
2023/12/26 09:25:58;;;;;;;12.27;11.87;;;11.20;99.90;;;;;;5108639;28;20221;-67
2023/12/26 09:28:24;;;;;;;11.97;11.57;;;11.30;99.90;;;;;;5117578;28;20210;-65
2023/12/26 09:30:51;;;;;;;12.40;12.00;;;11.30;99.90;;;;;;5113207;28;20249;-67
2023/12/26 09:33:18;;;;;;;12.43;12.03;;;11.30;99.90;;;;;;5116776;28;20284;-67
2023/12/26 09:35:46;;;;;;;12.47;12.00;;;11.30;99.90;;;;;;5115086;28;20569;-66
2023/12/26 09:38:13;;;;;;;11.73;11.33;;;11.30;99.90;;;;;;5110696;28;20206;-66
2023/12/26 09:40:40;;;;;;;12.03;11.63;;;11.30;99.90;;;;;;5111306;28;20312;-66
2023/12/26 09:43:07;;;;;;;11.63;11.23;;;11.40;99.90;;;;;;5108341;28;20241;-65
2023/12/26 09:45:35;;;;;;;11.40;11.00;;;11.40;99.90;;;;;;5114232;28;20214;-65
2023/12/26 09:48:02;;;;;;;11.87;11.47;;;11.40;99.90;;;;;;5117085;27;20202;-67
2023/12/26 09:50:29;;;;;;;12.23;11.83;;;11.40;99.90;;;;;;5114950;28;20593;-67
2023/12/26 09:53:01;;;;;;;11.53;11.13;;;11.40;99.90;;;;;;5114187;28;20660;-65
2023/12/26 09:55:28;;;;;;;11.83;11.43;;;11.40;99.90;;;;;;5117037;27;20221;-66
2023/12/26 09:57:57;;;;;;;11.93;11.53;;;11.30;99.90;;;;;;5121068;28;20606;-66
2023/12/26 10:00:25;;;;;;;12.70;12.30;;;11.30;99.90;;;;;;5115275;28;20241;-65
2023/12/26 10:02:52;;;;;;;12.30;11.90;;;11.30;99.90;;;;;;5126417;27;20229;-66
2023/12/26 10:05:19;;;;;;;12.47;12.03;;;11.30;99.90;;;;;;5117731;27;20289;-66
2023/12/26 10:07:46;;;;;;;11.70;11.30;;;11.30;99.90;;;;;;5120042;27;20279;-67
2023/12/26 10:10:19;;;;;;;12.27;11.87;;;11.20;99.90;;;;;;5111484;28;20692;-65
2023/12/26 10:12:46;;;;;;;11.90;11.50;;;11.20;99.90;;;;;;5118424;27;20206;-66
2023/12/26 10:15:13;;;;;;;12.87;12.37;;;11.20;99.90;;;;;;5113978;27;20202;-65
2023/12/26 10:17:43;;;;;;;11.37;10.97;;;11.20;99.90;;;;;;5117681;27;20643;-66
2023/12/26 10:20:12;;;;;;;12.37;11.97;;;11.20;99.90;;;;;;5118612;27;20257;-66
2023/12/26 10:22:42;;;;;;;12.90;12.40;;;11.30;99.90;;;;;;5116640;27;20201;-65
2023/12/26 10:25:09;;;;;;;11.40;11.00;;;11.30;99.90;;;;;;5118841;27;20221;-66
2023/12/26 10:27:38;;;;;;;12.77;12.30;;;11.30;99.90;;;;;;5115084;28;20205;-65
2023/12/26 10:30:06;;;;;;;12.13;11.73;;;11.30;99.90;;;;;;5120686;27;20234;-65
2023/12/26 10:32:33;;;;;;;13.03;12.53;;;11.30;99.90;;;;;;5110701;28;20290;-65
2023/12/26 10:35:14;;;;;;;12.37;11.97;;;11.40;99.90;;;;;;5109871;28;20198;-66
2023/12/26 10:37:41;;;;;;;11.90;11.50;;;11.40;99.90;;;;;;5116087;27;20198;-65
2023/12/26 10:40:09;;;;;;;12.83;12.33;;;11.40;99.90;;;;;;5110120;27;20224;-65
2023/12/26 10:42:40;;;;;;;12.63;12.13;;;11.30;99.90;;;;;;5109977;27;20197;-65
2023/12/26 10:45:08;;;;;;;12.37;11.93;;;11.30;99.90;;;;;;5105567;27;20202;-66
2023/12/26 10:47:35;;;;;;;13.03;12.53;;;11.30;99.90;;;;;;5109078;27;20202;-69
2023/12/26 10:50:06;;;;;;;12.50;12.10;;;11.30;99.90;;;;;;5111791;27;20244;-65
2023/12/26 10:52:32;;;;;;;12.83;12.33;;;11.30;99.90;;;;;;5116420;27;20204;-65
2023/12/26 10:55:01;;;;;;;12.37;11.90;;;11.40;99.90;;;;;;5112977;27;20198;-65
2023/12/26 10:57:29;;;;;;;12.10;11.70;;;11.40;99.90;;;;;;5123562;27;20665;-65
2023/12/26 13:52:02;;;;;;;12.63;12.13;;;11.50;99.90;;;;;;5120625;27;20196;-67
2023/12/26 13:54:28;;;;;;;12.37;11.87;;;11.60;99.90;;;;;;5115259;27;20703;-66
2023/12/26 13:56:55;;;;;;;12.13;11.73;;;11.50;99.90;;;;;;5115991;27;20656;-66
2023/12/26 13:59:22;;;;;;;12.23;11.83;;;11.50;99.90;;;;;;5122273;27;20292;-66
2023/12/26 14:02:27;;;;;;;12.60;12.10;;;11.50;99.90;;;;;;5114356;27;20218;-65
2023/12/26 14:05:31;;;;;;;12.47;11.97;;;11.50;99.90;;;;;;5118574;27;20210;-66
2023/12/26 14:08:35;;;;;;;12.93;12.43;;;11.50;99.90;;;;;;5118187;27;20259;-64
2023/12/26 14:11:39;;;;;;;12.52;12.02;;;11.50;99.90;;;;;;5115520;28;20221;-65
2023/12/26 14:14:44;;;;;;;12.50;12.10;;;11.50;99.90;;;;;;5113563;28;20579;-66
2023/12/26 14:17:47;;;;;;;12.37;11.87;;;11.50;99.90;;;;;;5114308;28;20668;-65
2023/12/26 14:20:52;;;;;;;12.40;12.00;;;11.50;99.90;;;;;;5114985;27;20756;-66
2023/12/26 14:23:56;;;;;;;12.83;12.33;;;11.50;99.90;;;;;;5112004;28;20202;-66
2023/12/26 14:27:02;;;;;;;13.60;13.00;;;11.60;99.90;;;;;;5115466;28;20229;-66
2023/12/26 14:30:07;;;;;;;12.43;11.93;;;11.60;99.90;;;;;;5115176;27;20229;-65
2023/12/26 14:33:11;;;;;;;12.33;11.93;;;11.50;99.90;;;;;;5113993;27;20310;-64
2023/12/26 14:36:15;;;;;;;12.30;11.90;;;11.50;99.90;;;;;;5116284;27;20221;-66
2023/12/26 14:39:19;;;;;;;13.43;12.93;;;11.40;99.90;;;;;;5113694;28;20201;-65
2023/12/26 14:42:24;;;;;;;13.17;12.67;;;11.40;99.90;;;;;;5122452;27;20212;-64
2023/12/26 14:45:28;;;;;;;12.80;12.40;;;11.30;99.90;;;;;;5123307;27;20251;-65
2023/12/26 14:48:32;;;;;;;13.13;12.70;;;11.30;99.90;;;;;;5117839;28;20620;-65
2023/12/26 14:51:36;;;;;;;13.27;12.77;;;11.30;99.90;;;;;;5118988;27;20224;-65
2023/12/26 14:54:40;;;;;;;13.03;12.53;;;11.30;99.90;;;;;;5120346;27;20740;-65
2023/12/26 14:57:44;;;;;;;13.77;13.27;;;11.20;99.90;;;;;;5116179;27;20200;-65
2023/12/26 15:00:48;;;;;;;12.80;12.40;;;11.20;99.90;;;;;;5114398;28;20253;-65
2023/12/26 15:03:16;;;;;;;13.47;12.97;;;11.20;99.90;;;;;;5114737;27;20202;-65
2023/12/26 15:05:43;;;;;;;13.83;13.23;;;11.20;99.90;;;;;;5113559;28;20226;-65
2023/12/26 15:08:10;;;;;;;13.87;13.37;;;11.20;99.90;;;;;;5120482;27;20252;-65
2023/12/26 15:10:37;;;;;;;13.00;12.50;;;11.20;99.90;;;;;;5120337;27;20304;-66
2023/12/26 15:13:04;;;;;;;13.47;13.00;;;11.30;99.90;;;;;;5121009;27;20202;-64
2023/12/26 15:15:31;;;;;;;13.50;13.00;;;11.20;99.90;;;;;;5114788;28;20285;-65
2023/12/26 15:17:57;;;;;;;13.17;12.67;;;11.20;99.90;;;;;;5120005;27;20202;-66
2023/12/26 15:20:26;;;;;;;13.70;13.20;;;11.20;99.90;;;;;;5114918;28;20316;-66
2023/12/26 15:22:53;;;;;;;13.73;13.23;;;11.20;99.90;;;;;;5123858;27;20297;-64
2023/12/26 15:25:19;;;;;;;13.50;13.00;;;11.10;99.90;;;;;;5114637;28;20224;-65
2023/12/26 15:27:48;;;;;;;13.50;13.00;;;11.10;99.90;;;;;;5114316;28;20226;-65
2023/12/26 15:30:15;;;;;;;13.50;13.00;;;11.10;99.90;;;;;;5111388;27;20250;-65
2023/12/26 15:32:42;;;;;;;14.47;13.97;;;11.10;99.90;;;;;;5116805;27;20289;-65